sensor_id;sensor_type;location;lat;lon;timestamp;P1;durP1;ratioP1;P2;durP2;ratioP2
51566;SDS011;37657;53.182;5.638;2023-06-24T00:01:27;11.70;;;9.75;;
51566;SDS011;37657;53.182;5.638;2023-06-24T00:03:53;9.95;;;7.90;;
51566;SDS011;37657;53.182;5.638;2023-06-24T00:06:19;14.50;;;10.27;;
51566;SDS011;37657;53.182;5.638;2023-06-24T00:08:45;15.07;;;10.55;;
51566;SDS011;37657;53.182;5.638;2023-06-24T00:11:11;10.00;;;7.72;;
51566;SDS011;37657;53.182;5.638;2023-06-24T00:13:38;12.43;;;9.82;;
51566;SDS011;37657;53.182;5.638;2023-06-24T00:16:05;14.98;;;10.35;;
51566;SDS011;37657;53.182;5.638;2023-06-24T00:18:31;12.32;;;9.25;;
51566;SDS011;37657;53.182;5.638;2023-06-24T00:20:58;16.75;;;11.40;;
51566;SDS011;37657;53.182;5.638;2023-06-24T00:23:24;10.55;;;8.75;;
51566;SDS011;37657;53.182;5.638;2023-06-24T00:25:53;13.40;;;9.40;;
51566;SDS011;37657;53.182;5.638;2023-06-24T00:28:20;13.55;;;11.10;;
51566;SDS011;37657;53.182;5.638;2023-06-24T00:30:46;10.85;;;8.70;;
51566;SDS011;37657;53.182;5.638;2023-06-24T00:33:12;12.20;;;8.93;;
51566;SDS011;37657;53.182;5.638;2023-06-24T00:35:39;12.18;;;9.32;;
51566;SDS011;37657;53.182;5.638;2023-06-24T00:38:05;32.33;;;11.38;;
51566;SDS011;37657;53.182;5.638;2023-06-24T00:40:31;9.63;;;8.63;;
51566;SDS011;37657;53.182;5.638;2023-06-24T00:42:56;12.60;;;11.30;;
51566;SDS011;37657;53.182;5.638;2023-06-24T00:45:23;13.43;;;9.35;;
51566;SDS011;37657;53.182;5.638;2023-06-24T00:47:49;10.07;;;9.07;;
51566;SDS011;37657;53.182;5.638;2023-06-24T00:50:16;10.98;;;9.48;;
51566;SDS011;37657;53.182;5.638;2023-06-24T00:52:42;11.98;;;10.60;;
51566;SDS011;37657;53.182;5.638;2023-06-24T00:55:11;11.70;;;10.48;;
51566;SDS011;37657;53.182;5.638;2023-06-24T00:57:40;12.68;;;10.05;;
51566;SDS011;37657;53.182;5.638;2023-06-24T01:00:09;11.45;;;8.68;;
51566;SDS011;37657;53.182;5.638;2023-06-24T01:02:40;12.75;;;10.35;;
51566;SDS011;37657;53.182;5.638;2023-06-24T01:05:07;12.23;;;9.85;;
51566;SDS011;37657;53.182;5.638;2023-06-24T01:07:33;10.30;;;9.20;;
51566;SDS011;37657;53.182;5.638;2023-06-24T01:10:02;12.02;;;9.80;;
51566;SDS011;37657;53.182;5.638;2023-06-24T01:12:31;12.02;;;10.82;;
51566;SDS011;37657;53.182;5.638;2023-06-24T01:14:58;11.57;;;9.07;;
51566;SDS011;37657;53.182;5.638;2023-06-24T01:17:27;11.70;;;10.57;;
51566;SDS011;37657;53.182;5.638;2023-06-24T01:20:19;10.13;;;8.45;;
51566;SDS011;37657;53.182;5.638;2023-06-24T01:25:24;11.73;;;9.23;;
51566;SDS011;37657;53.182;5.638;2023-06-24T01:31:02;14.80;;;11.55;;
51566;SDS011;37657;53.182;5.638;2023-06-24T01:37:00;12.02;;;10.57;;
51566;SDS011;37657;53.182;5.638;2023-06-24T01:39:49;13.88;;;10.02;;
51566;SDS011;37657;53.182;5.638;2023-06-24T01:42:21;15.73;;;11.13;;
51566;SDS011;37657;53.182;5.638;2023-06-24T01:44:48;16.52;;;12.68;;
51566;SDS011;37657;53.182;5.638;2023-06-24T01:47:16;15.05;;;11.32;;
51566;SDS011;37657;53.182;5.638;2023-06-24T01:49:46;13.85;;;11.27;;
51566;SDS011;37657;53.182;5.638;2023-06-24T01:52:13;14.00;;;10.05;;
51566;SDS011;37657;53.182;5.638;2023-06-24T01:54:39;14.48;;;11.48;;
51566;SDS011;37657;53.182;5.638;2023-06-24T01:57:08;13.88;;;10.80;;
51566;SDS011;37657;53.182;5.638;2023-06-24T01:59:35;18.65;;;12.05;;
51566;SDS011;37657;53.182;5.638;2023-06-24T02:02:03;12.90;;;11.45;;
51566;SDS011;37657;53.182;5.638;2023-06-24T02:04:30;16.27;;;12.50;;
51566;SDS011;37657;53.182;5.638;2023-06-24T02:07:01;14.38;;;10.52;;
51566;SDS011;37657;53.182;5.638;2023-06-24T02:09:28;14.07;;;11.30;;
51566;SDS011;37657;53.182;5.638;2023-06-24T02:11:56;14.95;;;11.50;;
51566;SDS011;37657;53.182;5.638;2023-06-24T02:14:24;15.48;;;11.90;;
51566;SDS011;37657;53.182;5.638;2023-06-24T02:16:52;12.65;;;11.32;;
51566;SDS011;37657;53.182;5.638;2023-06-24T02:19:21;14.07;;;12.07;;
51566;SDS011;37657;53.182;5.638;2023-06-24T02:21:49;12.68;;;11.25;;
51566;SDS011;37657;53.182;5.638;2023-06-24T02:24:16;13.55;;;11.93;;
51566;SDS011;37657;53.182;5.638;2023-06-24T02:26:43;14.50;;;12.00;;
51566;SDS011;37657;53.182;5.638;2023-06-24T02:29:10;18.40;;;12.40;;
51566;SDS011;37657;53.182;5.638;2023-06-24T02:31:37;13.45;;;11.27;;
51566;SDS011;37657;53.182;5.638;2023-06-24T02:34:03;15.10;;;11.40;;
51566;SDS011;37657;53.182;5.638;2023-06-24T02:36:29;14.23;;;12.68;;
51566;SDS011;37657;53.182;5.638;2023-06-24T02:38:55;13.45;;;11.52;;
51566;SDS011;37657;53.182;5.638;2023-06-24T02:41:20;17.13;;;12.50;;
51566;SDS011;37657;53.182;5.638;2023-06-24T02:43:46;15.02;;;11.20;;
51566;SDS011;37657;53.182;5.638;2023-06-24T02:46:11;12.32;;;10.95;;
51566;SDS011;37657;53.182;5.638;2023-06-24T02:48:39;15.40;;;11.52;;
51566;SDS011;37657;53.182;5.638;2023-06-24T02:51:06;13.40;;;12.00;;
51566;SDS011;37657;53.182;5.638;2023-06-24T02:53:34;14.35;;;11.82;;
51566;SDS011;37657;53.182;5.638;2023-06-24T02:56:02;19.45;;;14.35;;
51566;SDS011;37657;53.182;5.638;2023-06-24T02:58:29;15.63;;;11.88;;
51566;SDS011;37657;53.182;5.638;2023-06-24T03:00:58;17.08;;;12.73;;
51566;SDS011;37657;53.182;5.638;2023-06-24T03:03:25;19.70;;;13.02;;
51566;SDS011;37657;53.182;5.638;2023-06-24T03:05:53;13.23;;;11.38;;
51566;SDS011;37657;53.182;5.638;2023-06-24T03:08:19;15.32;;;11.95;;
51566;SDS011;37657;53.182;5.638;2023-06-24T03:10:45;17.77;;;12.25;;
51566;SDS011;37657;53.182;5.638;2023-06-24T03:13:11;13.38;;;11.98;;
51566;SDS011;37657;53.182;5.638;2023-06-24T03:15:36;15.90;;;13.20;;
51566;SDS011;37657;53.182;5.638;2023-06-24T03:18:02;17.05;;;11.55;;
51566;SDS011;37657;53.182;5.638;2023-06-24T03:20:28;15.43;;;12.07;;
51566;SDS011;37657;53.182;5.638;2023-06-24T03:22:53;15.15;;;12.13;;
51566;SDS011;37657;53.182;5.638;2023-06-24T03:25:21;17.73;;;14.27;;
51566;SDS011;37657;53.182;5.638;2023-06-24T03:27:46;12.93;;;10.63;;
51566;SDS011;37657;53.182;5.638;2023-06-24T03:30:12;18.40;;;13.18;;
51566;SDS011;37657;53.182;5.638;2023-06-24T03:32:39;17.98;;;12.35;;
51566;SDS011;37657;53.182;5.638;2023-06-24T03:35:05;16.33;;;11.95;;
51566;SDS011;37657;53.182;5.638;2023-06-24T03:37:32;14.30;;;12.80;;
51566;SDS011;37657;53.182;5.638;2023-06-24T03:39:57;14.60;;;11.93;;
51566;SDS011;37657;53.182;5.638;2023-06-24T03:42:23;14.27;;;11.50;;
51566;SDS011;37657;53.182;5.638;2023-06-24T03:44:48;19.58;;;13.52;;
51566;SDS011;37657;53.182;5.638;2023-06-24T03:47:14;15.52;;;12.23;;
51566;SDS011;37657;53.182;5.638;2023-06-24T03:49:39;15.95;;;12.48;;
51566;SDS011;37657;53.182;5.638;2023-06-24T03:52:05;14.45;;;12.43;;
51566;SDS011;37657;53.182;5.638;2023-06-24T03:54:33;16.70;;;12.52;;
51566;SDS011;37657;53.182;5.638;2023-06-24T03:56:59;20.02;;;12.73;;
51566;SDS011;37657;53.182;5.638;2023-06-24T03:59:25;15.73;;;13.73;;
51566;SDS011;37657;53.182;5.638;2023-06-24T04:01:50;18.30;;;13.38;;
51566;SDS011;37657;53.182;5.638;2023-06-24T04:04:16;20.42;;;13.20;;
51566;SDS011;37657;53.182;5.638;2023-06-24T04:06:42;15.07;;;10.65;;
51566;SDS011;37657;53.182;5.638;2023-06-24T04:09:07;14.65;;;13.15;;
51566;SDS011;37657;53.182;5.638;2023-06-24T04:11:35;16.98;;;14.02;;
51566;SDS011;37657;53.182;5.638;2023-06-24T04:14:00;17.23;;;13.45;;
51566;SDS011;37657;53.182;5.638;2023-06-24T04:16:27;14.10;;;11.35;;
51566;SDS011;37657;53.182;5.638;2023-06-24T04:18:52;12.45;;;11.27;;
51566;SDS011;37657;53.182;5.638;2023-06-24T04:21:18;15.27;;;13.45;;
51566;SDS011;37657;53.182;5.638;2023-06-24T04:23:43;19.33;;;14.32;;
51566;SDS011;37657;53.182;5.638;2023-06-24T04:26:09;16.30;;;13.57;;
51566;SDS011;37657;53.182;5.638;2023-06-24T04:28:35;15.15;;;13.60;;
51566;SDS011;37657;53.182;5.638;2023-06-24T04:31:00;14.65;;;12.38;;
51566;SDS011;37657;53.182;5.638;2023-06-24T04:33:26;19.65;;;12.70;;
51566;SDS011;37657;53.182;5.638;2023-06-24T04:35:51;13.75;;;11.52;;
51566;SDS011;37657;53.182;5.638;2023-06-24T04:38:17;14.25;;;11.23;;
51566;SDS011;37657;53.182;5.638;2023-06-24T04:40:43;11.65;;;10.55;;
51566;SDS011;37657;53.182;5.638;2023-06-24T04:43:10;15.95;;;12.20;;
51566;SDS011;37657;53.182;5.638;2023-06-24T04:45:35;14.95;;;12.68;;
51566;SDS011;37657;53.182;5.638;2023-06-24T04:48:01;16.23;;;12.48;;
51566;SDS011;37657;53.182;5.638;2023-06-24T04:50:26;15.52;;;12.50;;
51566;SDS011;37657;53.182;5.638;2023-06-24T04:52:52;16.85;;;11.68;;
51566;SDS011;37657;53.182;5.638;2023-06-24T04:55:19;15.10;;;10.50;;
51566;SDS011;37657;53.182;5.638;2023-06-24T04:57:48;13.40;;;11.93;;
51566;SDS011;37657;53.182;5.638;2023-06-24T05:00:14;17.00;;;11.43;;
51566;SDS011;37657;53.182;5.638;2023-06-24T05:02:39;15.32;;;11.93;;
51566;SDS011;37657;53.182;5.638;2023-06-24T05:05:05;12.38;;;10.15;;
51566;SDS011;37657;53.182;5.638;2023-06-24T05:07:31;17.75;;;12.77;;
51566;SDS011;37657;53.182;5.638;2023-06-24T05:09:56;15.55;;;12.15;;
51566;SDS011;37657;53.182;5.638;2023-06-24T05:12:22;14.50;;;12.30;;
51566;SDS011;37657;53.182;5.638;2023-06-24T05:14:50;12.50;;;10.00;;
51566;SDS011;37657;53.182;5.638;2023-06-24T05:17:17;15.30;;;11.15;;
51566;SDS011;37657;53.182;5.638;2023-06-24T05:19:43;16.27;;;12.35;;
51566;SDS011;37657;53.182;5.638;2023-06-24T05:22:09;15.38;;;12.25;;
51566;SDS011;37657;53.182;5.638;2023-06-24T05:24:35;20.52;;;13.88;;
51566;SDS011;37657;53.182;5.638;2023-06-24T05:27:03;14.52;;;12.13;;
51566;SDS011;37657;53.182;5.638;2023-06-24T05:29:33;19.23;;;13.73;;
51566;SDS011;37657;53.182;5.638;2023-06-24T05:31:59;15.40;;;11.13;;
51566;SDS011;37657;53.182;5.638;2023-06-24T05:34:26;15.88;;;12.55;;
51566;SDS011;37657;53.182;5.638;2023-06-24T05:36:52;14.15;;;11.63;;
51566;SDS011;37657;53.182;5.638;2023-06-24T05:39:19;18.10;;;12.63;;
51566;SDS011;37657;53.182;5.638;2023-06-24T05:41:45;15.30;;;11.90;;
51566;SDS011;37657;53.182;5.638;2023-06-24T05:44:13;14.55;;;11.80;;
51566;SDS011;37657;53.182;5.638;2023-06-24T05:46:38;17.05;;;11.98;;
51566;SDS011;37657;53.182;5.638;2023-06-24T05:49:04;16.15;;;13.57;;
51566;SDS011;37657;53.182;5.638;2023-06-24T05:51:29;15.45;;;11.05;;
51566;SDS011;37657;53.182;5.638;2023-06-24T05:53:55;13.85;;;11.18;;
51566;SDS011;37657;53.182;5.638;2023-06-24T05:56:21;13.00;;;10.35;;
51566;SDS011;37657;53.182;5.638;2023-06-24T05:58:47;14.45;;;10.93;;
51566;SDS011;37657;53.182;5.638;2023-06-24T06:01:13;15.60;;;10.50;;
51566;SDS011;37657;53.182;5.638;2023-06-24T06:03:39;14.25;;;12.00;;
51566;SDS011;37657;53.182;5.638;2023-06-24T06:06:05;11.55;;;9.73;;
51566;SDS011;37657;53.182;5.638;2023-06-24T06:08:31;9.25;;;8.15;;
51566;SDS011;37657;53.182;5.638;2023-06-24T06:10:57;11.43;;;9.48;;
51566;SDS011;37657;53.182;5.638;2023-06-24T06:13:23;12.23;;;9.77;;
51566;SDS011;37657;53.182;5.638;2023-06-24T06:15:49;11.68;;;8.45;;
51566;SDS011;37657;53.182;5.638;2023-06-24T06:18:14;13.88;;;9.63;;
51566;SDS011;37657;53.182;5.638;2023-06-24T06:20:40;13.02;;;8.57;;
51566;SDS011;37657;53.182;5.638;2023-06-24T06:23:05;11.25;;;7.88;;
51566;SDS011;37657;53.182;5.638;2023-06-24T06:25:32;11.20;;;8.52;;
51566;SDS011;37657;53.182;5.638;2023-06-24T06:27:57;10.43;;;7.50;;
51566;SDS011;37657;53.182;5.638;2023-06-24T06:30:23;10.77;;;7.28;;
51566;SDS011;37657;53.182;5.638;2023-06-24T06:32:49;10.27;;;6.65;;
51566;SDS011;37657;53.182;5.638;2023-06-24T06:35:14;9.07;;;6.28;;
51566;SDS011;37657;53.182;5.638;2023-06-24T06:37:40;10.82;;;6.53;;
51566;SDS011;37657;53.182;5.638;2023-06-24T06:40:05;9.23;;;6.75;;
51566;SDS011;37657;53.182;5.638;2023-06-24T06:42:31;9.73;;;6.78;;
51566;SDS011;37657;53.182;5.638;2023-06-24T06:44:57;8.82;;;6.13;;
51566;SDS011;37657;53.182;5.638;2023-06-24T06:47:23;9.07;;;7.07;;
51566;SDS011;37657;53.182;5.638;2023-06-24T06:49:48;8.63;;;6.20;;
51566;SDS011;37657;53.182;5.638;2023-06-24T06:52:14;10.18;;;6.45;;
51566;SDS011;37657;53.182;5.638;2023-06-24T06:54:39;8.57;;;5.55;;
51566;SDS011;37657;53.182;5.638;2023-06-24T06:57:05;14.20;;;6.50;;
51566;SDS011;37657;53.182;5.638;2023-06-24T06:59:31;17.83;;;5.97;;
51566;SDS011;37657;53.182;5.638;2023-06-24T07:01:56;9.27;;;6.50;;
51566;SDS011;37657;53.182;5.638;2023-06-24T07:04:22;9.05;;;6.75;;
51566;SDS011;37657;53.182;5.638;2023-06-24T07:06:48;15.63;;;6.38;;
51566;SDS011;37657;53.182;5.638;2023-06-24T07:09:14;12.27;;;6.72;;
51566;SDS011;37657;53.182;5.638;2023-06-24T07:11:40;7.93;;;5.88;;
51566;SDS011;37657;53.182;5.638;2023-06-24T07:14:06;9.35;;;6.40;;
51566;SDS011;37657;53.182;5.638;2023-06-24T07:16:32;8.25;;;6.63;;
51566;SDS011;37657;53.182;5.638;2023-06-24T07:18:57;7.03;;;5.32;;
51566;SDS011;37657;53.182;5.638;2023-06-24T07:21:23;13.75;;;6.43;;
51566;SDS011;37657;53.182;5.638;2023-06-24T07:23:48;10.05;;;6.22;;
51566;SDS011;37657;53.182;5.638;2023-06-24T07:26:14;8.40;;;4.90;;
51566;SDS011;37657;53.182;5.638;2023-06-24T07:28:39;10.32;;;5.40;;
51566;SDS011;37657;53.182;5.638;2023-06-24T07:31:05;6.38;;;4.88;;
51566;SDS011;37657;53.182;5.638;2023-06-24T07:33:30;8.73;;;6.05;;
51566;SDS011;37657;53.182;5.638;2023-06-24T07:35:56;9.80;;;5.63;;
51566;SDS011;37657;53.182;5.638;2023-06-24T07:38:22;7.43;;;5.68;;
51566;SDS011;37657;53.182;5.638;2023-06-24T07:40:47;9.27;;;6.00;;
51566;SDS011;37657;53.182;5.638;2023-06-24T07:43:13;8.95;;;5.47;;
51566;SDS011;37657;53.182;5.638;2023-06-24T07:45:39;9.50;;;5.32;;
51566;SDS011;37657;53.182;5.638;2023-06-24T07:48:05;14.25;;;7.68;;
51566;SDS011;37657;53.182;5.638;2023-06-24T07:50:32;13.77;;;6.00;;
51566;SDS011;37657;53.182;5.638;2023-06-24T07:52:58;12.32;;;6.88;;
51566;SDS011;37657;53.182;5.638;2023-06-24T07:55:23;10.70;;;7.28;;
51566;SDS011;37657;53.182;5.638;2023-06-24T07:57:49;11.13;;;6.22;;
51566;SDS011;37657;53.182;5.638;2023-06-24T08:00:14;7.95;;;6.78;;
51566;SDS011;37657;53.182;5.638;2023-06-24T08:02:41;10.32;;;6.18;;
51566;SDS011;37657;53.182;5.638;2023-06-24T08:05:07;13.80;;;8.10;;
51566;SDS011;37657;53.182;5.638;2023-06-24T08:07:34;9.30;;;6.47;;
51566;SDS011;37657;53.182;5.638;2023-06-24T08:10:00;8.38;;;6.53;;
51566;SDS011;37657;53.182;5.638;2023-06-24T08:12:25;10.27;;;6.30;;
51566;SDS011;37657;53.182;5.638;2023-06-24T08:14:51;7.85;;;5.93;;
51566;SDS011;37657;53.182;5.638;2023-06-24T08:17:17;8.43;;;7.15;;
51566;SDS011;37657;53.182;5.638;2023-06-24T08:19:42;10.95;;;7.45;;
51566;SDS011;37657;53.182;5.638;2023-06-24T08:22:08;11.05;;;8.18;;
51566;SDS011;37657;53.182;5.638;2023-06-24T08:24:33;12.02;;;8.52;;
51566;SDS011;37657;53.182;5.638;2023-06-24T08:26:59;8.93;;;5.90;;
51566;SDS011;37657;53.182;5.638;2023-06-24T08:29:25;10.18;;;8.07;;
51566;SDS011;37657;53.182;5.638;2023-06-24T08:31:50;8.95;;;6.93;;
51566;SDS011;37657;53.182;5.638;2023-06-24T08:34:16;9.57;;;6.63;;
51566;SDS011;37657;53.182;5.638;2023-06-24T08:36:41;9.30;;;7.20;;
51566;SDS011;37657;53.182;5.638;2023-06-24T08:39:07;10.15;;;7.50;;
51566;SDS011;37657;53.182;5.638;2023-06-24T08:41:33;9.85;;;6.20;;
51566;SDS011;37657;53.182;5.638;2023-06-24T08:43:58;15.70;;;9.20;;
51566;SDS011;37657;53.182;5.638;2023-06-24T08:46:24;14.02;;;6.60;;
51566;SDS011;37657;53.182;5.638;2023-06-24T08:48:54;7.90;;;6.13;;
51566;SDS011;37657;53.182;5.638;2023-06-24T08:51:27;9.73;;;7.00;;
51566;SDS011;37657;53.182;5.638;2023-06-24T08:53:56;11.95;;;6.68;;
51566;SDS011;37657;53.182;5.638;2023-06-24T08:56:23;7.75;;;6.22;;
51566;SDS011;37657;53.182;5.638;2023-06-24T08:58:49;12.43;;;5.90;;
51566;SDS011;37657;53.182;5.638;2023-06-24T09:01:15;8.50;;;5.68;;
51566;SDS011;37657;53.182;5.638;2023-06-24T09:03:42;14.68;;;6.32;;
51566;SDS011;37657;53.182;5.638;2023-06-24T09:06:07;10.00;;;6.22;;
51566;SDS011;37657;53.182;5.638;2023-06-24T09:08:33;9.57;;;6.45;;
51566;SDS011;37657;53.182;5.638;2023-06-24T09:11:00;9.43;;;7.68;;
51566;SDS011;37657;53.182;5.638;2023-06-24T09:13:35;9.23;;;5.88;;
51566;SDS011;37657;53.182;5.638;2023-06-24T09:16:22;7.22;;;5.35;;
51566;SDS011;37657;53.182;5.638;2023-06-24T09:21:14;8.88;;;7.15;;
51566;SDS011;37657;53.182;5.638;2023-06-24T09:23:57;13.23;;;8.40;;
51566;SDS011;37657;53.182;5.638;2023-06-24T09:26:24;8.05;;;5.40;;
51566;SDS011;37657;53.182;5.638;2023-06-24T09:28:50;10.82;;;8.70;;
51566;SDS011;37657;53.182;5.638;2023-06-24T09:31:16;10.30;;;7.47;;
51566;SDS011;37657;53.182;5.638;2023-06-24T09:33:42;10.35;;;7.97;;
51566;SDS011;37657;53.182;5.638;2023-06-24T09:36:15;13.70;;;7.60;;
51566;SDS011;37657;53.182;5.638;2023-06-24T09:38:41;14.55;;;8.40;;
51566;SDS011;37657;53.182;5.638;2023-06-24T09:41:09;13.70;;;8.13;;
51566;SDS011;37657;53.182;5.638;2023-06-24T09:43:35;11.63;;;8.90;;
51566;SDS011;37657;53.182;5.638;2023-06-24T09:46:02;10.95;;;8.15;;
51566;SDS011;37657;53.182;5.638;2023-06-24T09:48:28;10.02;;;6.60;;
51566;SDS011;37657;53.182;5.638;2023-06-24T09:50:58;9.70;;;6.88;;
51566;SDS011;37657;53.182;5.638;2023-06-24T09:53:26;11.10;;;7.68;;
51566;SDS011;37657;53.182;5.638;2023-06-24T09:55:56;16.35;;;8.02;;
51566;SDS011;37657;53.182;5.638;2023-06-24T09:58:24;13.73;;;8.43;;
51566;SDS011;37657;53.182;5.638;2023-06-24T10:00:50;11.98;;;7.53;;
51566;SDS011;37657;53.182;5.638;2023-06-24T10:03:17;11.00;;;6.47;;
51566;SDS011;37657;53.182;5.638;2023-06-24T10:05:43;10.95;;;7.43;;
51566;SDS011;37657;53.182;5.638;2023-06-24T10:08:09;11.23;;;8.13;;
51566;SDS011;37657;53.182;5.638;2023-06-24T10:10:35;13.43;;;7.40;;
51566;SDS011;37657;53.182;5.638;2023-06-24T10:13:01;13.27;;;7.70;;
51566;SDS011;37657;53.182;5.638;2023-06-24T10:15:26;9.05;;;7.07;;
51566;SDS011;37657;53.182;5.638;2023-06-24T10:17:52;8.32;;;5.50;;
51566;SDS011;37657;53.182;5.638;2023-06-24T10:20:24;8.27;;;6.30;;
51566;SDS011;37657;53.182;5.638;2023-06-24T10:22:51;8.27;;;5.28;;
51566;SDS011;37657;53.182;5.638;2023-06-24T10:25:17;10.88;;;7.18;;
51566;SDS011;37657;53.182;5.638;2023-06-24T10:27:43;10.55;;;6.90;;
51566;SDS011;37657;53.182;5.638;2023-06-24T10:30:16;7.95;;;6.43;;
51566;SDS011;37657;53.182;5.638;2023-06-24T10:32:50;11.23;;;7.90;;
51566;SDS011;37657;53.182;5.638;2023-06-24T10:35:26;8.55;;;6.95;;
51566;SDS011;37657;53.182;5.638;2023-06-24T10:37:57;11.00;;;7.55;;
51566;SDS011;37657;53.182;5.638;2023-06-24T10:40:34;10.30;;;8.88;;
51566;SDS011;37657;53.182;5.638;2023-06-24T10:45:50;8.93;;;6.45;;
51566;SDS011;37657;53.182;5.638;2023-06-24T10:48:18;6.90;;;5.35;;
51566;SDS011;37657;53.182;5.638;2023-06-24T10:50:44;9.45;;;6.70;;
51566;SDS011;37657;53.182;5.638;2023-06-24T10:53:10;8.48;;;6.07;;
51566;SDS011;37657;53.182;5.638;2023-06-24T10:55:38;7.38;;;5.35;;
51566;SDS011;37657;53.182;5.638;2023-06-24T10:58:11;9.43;;;5.90;;
51566;SDS011;37657;53.182;5.638;2023-06-24T11:00:42;6.80;;;4.65;;
51566;SDS011;37657;53.182;5.638;2023-06-24T11:03:09;8.90;;;5.93;;
51566;SDS011;37657;53.182;5.638;2023-06-24T11:05:43;9.95;;;5.70;;
51566;SDS011;37657;53.182;5.638;2023-06-24T11:08:09;11.50;;;7.75;;
51566;SDS011;37657;53.182;5.638;2023-06-24T11:10:43;10.95;;;6.05;;
51566;SDS011;37657;53.182;5.638;2023-06-24T11:13:09;9.93;;;8.07;;
51566;SDS011;37657;53.182;5.638;2023-06-24T11:15:34;11.75;;;6.35;;
51566;SDS011;37657;53.182;5.638;2023-06-24T11:18:02;12.75;;;6.03;;
51566;SDS011;37657;53.182;5.638;2023-06-24T11:20:29;8.68;;;5.57;;
51566;SDS011;37657;53.182;5.638;2023-06-24T11:22:54;11.02;;;5.60;;
51566;SDS011;37657;53.182;5.638;2023-06-24T11:25:21;7.47;;;4.78;;
51566;SDS011;37657;53.182;5.638;2023-06-24T11:27:47;7.80;;;4.28;;
51566;SDS011;37657;53.182;5.638;2023-06-24T11:30:15;5.10;;;3.85;;
51566;SDS011;37657;53.182;5.638;2023-06-24T11:32:42;9.43;;;5.55;;
51566;SDS011;37657;53.182;5.638;2023-06-24T11:35:09;6.50;;;5.32;;
51566;SDS011;37657;53.182;5.638;2023-06-24T11:37:36;6.90;;;4.18;;
51566;SDS011;37657;53.182;5.638;2023-06-24T11:40:06;16.90;;;5.25;;
51566;SDS011;37657;53.182;5.638;2023-06-24T11:42:36;14.70;;;5.28;;
51566;SDS011;37657;53.182;5.638;2023-06-24T11:45:05;10.02;;;5.38;;
51566;SDS011;37657;53.182;5.638;2023-06-24T11:47:32;8.57;;;4.18;;
51566;SDS011;37657;53.182;5.638;2023-06-24T11:50:02;6.25;;;4.22;;
51566;SDS011;37657;53.182;5.638;2023-06-24T11:55:18;5.60;;;4.88;;
51566;SDS011;37657;53.182;5.638;2023-06-24T12:00:30;5.50;;;4.20;;
51566;SDS011;37657;53.182;5.638;2023-06-24T12:02:58;6.95;;;5.47;;
51566;SDS011;37657;53.182;5.638;2023-06-24T12:05:32;8.85;;;5.57;;
51566;SDS011;37657;53.182;5.638;2023-06-24T12:08:06;5.72;;;4.35;;
51566;SDS011;37657;53.182;5.638;2023-06-24T12:10:34;6.25;;;4.00;;
51566;SDS011;37657;53.182;5.638;2023-06-24T12:13:00;7.75;;;4.68;;
51566;SDS011;37657;53.182;5.638;2023-06-24T12:15:27;8.10;;;4.03;;
51566;SDS011;37657;53.182;5.638;2023-06-24T12:17:53;6.90;;;3.92;;
51566;SDS011;37657;53.182;5.638;2023-06-24T12:20:19;5.40;;;3.35;;
51566;SDS011;37657;53.182;5.638;2023-06-24T12:22:45;7.32;;;4.80;;
51566;SDS011;37657;53.182;5.638;2023-06-24T12:25:12;9.63;;;4.93;;
51566;SDS011;37657;53.182;5.638;2023-06-24T12:27:38;7.00;;;5.35;;
51566;SDS011;37657;53.182;5.638;2023-06-24T12:30:05;9.07;;;4.93;;
51566;SDS011;37657;53.182;5.638;2023-06-24T12:32:31;8.52;;;6.22;;
51566;SDS011;37657;53.182;5.638;2023-06-24T12:34:57;5.75;;;4.50;;
51566;SDS011;37657;53.182;5.638;2023-06-24T12:37:23;5.90;;;3.85;;
51566;SDS011;37657;53.182;5.638;2023-06-24T12:39:48;8.25;;;5.75;;
51566;SDS011;37657;53.182;5.638;2023-06-24T12:42:16;6.88;;;5.00;;
51566;SDS011;37657;53.182;5.638;2023-06-24T12:44:42;11.32;;;5.88;;
51566;SDS011;37657;53.182;5.638;2023-06-24T12:47:07;5.80;;;4.18;;
51566;SDS011;37657;53.182;5.638;2023-06-24T12:49:33;13.73;;;5.35;;
51566;SDS011;37657;53.182;5.638;2023-06-24T12:51:58;8.65;;;4.40;;
51566;SDS011;37657;53.182;5.638;2023-06-24T12:54:24;6.47;;;4.43;;
51566;SDS011;37657;53.182;5.638;2023-06-24T12:56:49;9.82;;;5.60;;
51566;SDS011;37657;53.182;5.638;2023-06-24T12:59:15;6.25;;;4.43;;
51566;SDS011;37657;53.182;5.638;2023-06-24T13:01:40;6.45;;;5.00;;
51566;SDS011;37657;53.182;5.638;2023-06-24T13:04:09;8.30;;;5.53;;
51566;SDS011;37657;53.182;5.638;2023-06-24T13:06:35;8.13;;;5.30;;
51566;SDS011;37657;53.182;5.638;2023-06-24T13:09:01;5.93;;;3.35;;
51566;SDS011;37657;53.182;5.638;2023-06-24T13:11:27;4.85;;;4.18;;
51566;SDS011;37657;53.182;5.638;2023-06-24T13:13:53;9.88;;;4.60;;
51566;SDS011;37657;53.182;5.638;2023-06-24T13:16:19;6.50;;;3.63;;
51566;SDS011;37657;53.182;5.638;2023-06-24T13:18:44;7.57;;;4.68;;
51566;SDS011;37657;53.182;5.638;2023-06-24T13:21:10;5.72;;;3.78;;
51566;SDS011;37657;53.182;5.638;2023-06-24T13:23:35;12.98;;;5.95;;
51566;SDS011;37657;53.182;5.638;2023-06-24T13:26:03;6.85;;;5.30;;
51566;SDS011;37657;53.182;5.638;2023-06-24T13:28:29;5.60;;;4.20;;
51566;SDS011;37657;53.182;5.638;2023-06-24T13:30:56;7.72;;;4.10;;
51566;SDS011;37657;53.182;5.638;2023-06-24T13:33:22;8.95;;;4.97;;
51566;SDS011;37657;53.182;5.638;2023-06-24T13:35:48;8.15;;;5.38;;
51566;SDS011;37657;53.182;5.638;2023-06-24T13:38:14;8.02;;;4.80;;
51566;SDS011;37657;53.182;5.638;2023-06-24T13:40:40;7.50;;;4.95;;
51566;SDS011;37657;53.182;5.638;2023-06-24T13:43:06;6.47;;;5.38;;
51566;SDS011;37657;53.182;5.638;2023-06-24T13:45:31;6.32;;;4.28;;
51566;SDS011;37657;53.182;5.638;2023-06-24T13:47:57;7.60;;;5.43;;
51566;SDS011;37657;53.182;5.638;2023-06-24T13:50:22;6.00;;;3.40;;
51566;SDS011;37657;53.182;5.638;2023-06-24T13:52:48;9.88;;;5.15;;
51566;SDS011;37657;53.182;5.638;2023-06-24T13:55:14;6.22;;;4.57;;
51566;SDS011;37657;53.182;5.638;2023-06-24T13:57:39;7.28;;;4.45;;
51566;SDS011;37657;53.182;5.638;2023-06-24T14:00:05;6.75;;;4.90;;
51566;SDS011;37657;53.182;5.638;2023-06-24T14:02:31;6.63;;;4.05;;
51566;SDS011;37657;53.182;5.638;2023-06-24T14:04:57;7.80;;;5.25;;
51566;SDS011;37657;53.182;5.638;2023-06-24T14:07:22;6.85;;;4.13;;
51566;SDS011;37657;53.182;5.638;2023-06-24T14:09:48;5.35;;;3.80;;
51566;SDS011;37657;53.182;5.638;2023-06-24T14:12:14;8.25;;;5.82;;
51566;SDS011;37657;53.182;5.638;2023-06-24T14:14:40;5.55;;;2.97;;
51566;SDS011;37657;53.182;5.638;2023-06-24T14:17:06;3.90;;;2.90;;
51566;SDS011;37657;53.182;5.638;2023-06-24T14:19:36;6.28;;;4.45;;
51566;SDS011;37657;53.182;5.638;2023-06-24T14:22:02;4.88;;;3.20;;
51566;SDS011;37657;53.182;5.638;2023-06-24T14:24:28;6.80;;;4.10;;
51566;SDS011;37657;53.182;5.638;2023-06-24T14:26:53;4.97;;;3.20;;
51566;SDS011;37657;53.182;5.638;2023-06-24T14:29:19;4.50;;;2.95;;
51566;SDS011;37657;53.182;5.638;2023-06-24T14:31:44;7.68;;;3.67;;
51566;SDS011;37657;53.182;5.638;2023-06-24T14:34:10;6.07;;;3.17;;
51566;SDS011;37657;53.182;5.638;2023-06-24T14:36:36;4.30;;;3.63;;
51566;SDS011;37657;53.182;5.638;2023-06-24T14:39:01;6.03;;;3.45;;
51566;SDS011;37657;53.182;5.638;2023-06-24T14:41:27;5.43;;;3.58;;
51566;SDS011;37657;53.182;5.638;2023-06-24T14:43:53;5.07;;;3.20;;
51566;SDS011;37657;53.182;5.638;2023-06-24T14:46:18;5.47;;;4.13;;
51566;SDS011;37657;53.182;5.638;2023-06-24T14:48:44;4.22;;;2.63;;
51566;SDS011;37657;53.182;5.638;2023-06-24T14:51:09;6.25;;;4.15;;
51566;SDS011;37657;53.182;5.638;2023-06-24T14:53:35;7.50;;;4.82;;